sensor_id;sensor_type;location;lat;lon;timestamp;pressure;altitude;pressure_sealevel;temperature;humidity
40908;BME280;51055;59.436;24.778;2022-10-23T00:01:35;100780.91;;;5.34;97.83
40908;BME280;51055;59.436;24.778;2022-10-23T00:04:10;100784.38;;;5.34;97.54
40908;BME280;51055;59.436;24.778;2022-10-23T00:06:38;100783.53;;;5.34;98.04
40908;BME280;51055;59.436;24.778;2022-10-23T00:09:08;100781.69;;;5.36;98.13
40908;BME280;51055;59.436;24.778;2022-10-23T00:11:36;100773.53;;;5.24;98.55
40908;BME280;51055;59.436;24.778;2022-10-23T00:14:05;100778.13;;;5.21;98.68
40908;BME280;51055;59.436;24.778;2022-10-23T00:16:34;100778.31;;;5.18;99.14
40908;BME280;51055;59.436;24.778;2022-10-23T00:19:02;100776.63;;;5.17;99.17
40908;BME280;51055;59.436;24.778;2022-10-23T00:21:30;100778.31;;;5.18;98.59
40908;BME280;51055;59.436;24.778;2022-10-23T00:23:58;100771.94;;;5.22;98.86
40908;BME280;51055;59.436;24.778;2022-10-23T00:26:26;100778.47;;;5.15;98.54
40908;BME280;51055;59.436;24.778;2022-10-23T00:28:54;100772.38;;;5.14;98.96
40908;BME280;51055;59.436;24.778;2022-10-23T00:31:22;100770.88;;;5.10;99.21
40908;BME280;51055;59.436;24.778;2022-10-23T00:33:50;100774.31;;;5.11;99.09
40908;BME280;51055;59.436;24.778;2022-10-23T00:36:20;100771.69;;;5.11;98.62
40908;BME280;51055;59.436;24.778;2022-10-23T00:38:48;100773.63;;;5.07;99.34
40908;BME280;51055;59.436;24.778;2022-10-23T00:41:20;100774.66;;;5.05;99.45
40908;BME280;51055;59.436;24.778;2022-10-23T00:46:34;100772.88;;;5.05;99.62
40908;BME280;51055;59.436;24.778;2022-10-23T00:49:02;100768.53;;;5.04;99.28
40908;BME280;51055;59.436;24.778;2022-10-23T00:51:38;100767.72;;;5.04;100.00
40908;BME280;51055;59.436;24.778;2022-10-23T00:54:07;100761.63;;;5.03;100.00
40908;BME280;51055;59.436;24.778;2022-10-23T00:56:55;100759.84;;;5.04;100.00
40908;BME280;51055;59.436;24.778;2022-10-23T00:59:23;100758.13;;;5.03;100.00
40908;BME280;51055;59.436;24.778;2022-10-23T01:01:51;100762.47;;;5.04;100.00
40908;BME280;51055;59.436;24.778;2022-10-23T01:04:20;100750.25;;;5.03;99.64
40908;BME280;51055;59.436;24.778;2022-10-23T01:06:54;100745.25;;;4.98;99.99
40908;BME280;51055;59.436;24.778;2022-10-23T01:12:35;100743.97;;;4.90;100.00
40908;BME280;51055;59.436;24.778;2022-10-23T01:17:47;100735.81;;;4.94;100.00
40908;BME280;51055;59.436;24.778;2022-10-23T01:25:31;100739.06;;;4.99;100.00
40908;BME280;51055;59.436;24.778;2022-10-23T01:28:09;100744.06;;;5.04;100.00
40908;BME280;51055;59.436;24.778;2022-10-23T01:30:39;100734.66;;;5.00;100.00
40908;BME280;51055;59.436;24.778;2022-10-23T01:33:14;100734.47;;;5.03;100.00
40908;BME280;51055;59.436;24.778;2022-10-23T01:35:49;100743.97;;;5.05;100.00
40908;BME280;51055;59.436;24.778;2022-10-23T01:38:38;100726.84;;;4.98;100.00
40908;BME280;51055;59.436;24.778;2022-10-23T01:41:25;100733.06;;;4.97;100.00
40908;BME280;51055;59.436;24.778;2022-10-23T01:44:00;100731.56;;;5.07;100.00
40908;BME280;51055;59.436;24.778;2022-10-23T01:46:31;100731.69;;;5.06;100.00
40908;BME280;51055;59.436;24.778;2022-10-23T01:49:05;100736.81;;;5.07;100.00
40908;BME280;51055;59.436;24.778;2022-10-23T01:51:35;100721.72;;;5.11;100.00
40908;BME280;51055;59.436;24.778;2022-10-23T01:54:08;100724.97;;;5.16;100.00
40908;BME280;51055;59.436;24.778;2022-10-23T01:56:38;100720.44;;;5.18;100.00
40908;BME280;51055;59.436;24.778;2022-10-23T01:59:11;100725.72;;;5.18;100.00
40908;BME280;51055;59.436;24.778;2022-10-23T02:01:42;100724.59;;;5.22;100.00
40908;BME280;51055;59.436;24.778;2022-10-23T02:04:15;100722.91;;;5.21;100.00
40908;BME280;51055;59.436;24.778;2022-10-23T02:06:44;100716.63;;;5.23;100.00
40908;BME280;51055;59.436;24.778;2022-10-23T02:09:13;100715.69;;;5.24;100.00
40908;BME280;51055;59.436;24.778;2022-10-23T02:11:52;100724.34;;;5.27;100.00
40908;BME280;51055;59.436;24.778;2022-10-23T02:14:31;100725.28;;;5.25;100.00
40908;BME280;51055;59.436;24.778;2022-10-23T02:17:08;100720.09;;;5.24;100.00
40908;BME280;51055;59.436;24.778;2022-10-23T02:22:41;100721.13;;;5.21;100.00
40908;BME280;51055;59.436;24.778;2022-10-23T02:25:17;100728.94;;;5.23;100.00
40908;BME280;51055;59.436;24.778;2022-10-23T02:27:48;100725.34;;;5.24;100.00
40908;BME280;51055;59.436;24.778;2022-10-23T02:30:18;100715.00;;;5.21;100.00
40908;BME280;51055;59.436;24.778;2022-10-23T02:32:51;100720.19;;;5.22;100.00
40908;BME280;51055;59.436;24.778;2022-10-23T02:35:21;100717.81;;;5.18;100.00
40908;BME280;51055;59.436;24.778;2022-10-23T02:37:54;100715.13;;;5.19;100.00
40908;BME280;51055;59.436;24.778;2022-10-23T02:40:23;100714.09;;;5.22;100.00
40908;BME280;51055;59.436;24.778;2022-10-23T02:42:57;100716.53;;;5.25;100.00
40908;BME280;51055;59.436;24.778;2022-10-23T02:45:46;100710.84;;;5.33;100.00
40908;BME280;51055;59.436;24.778;2022-10-23T02:48:21;100707.94;;;5.37;100.00
40908;BME280;51055;59.436;24.778;2022-10-23T02:50:58;100711.41;;;5.38;100.00
40908;BME280;51055;59.436;24.778;2022-10-23T02:53:37;100709.47;;;5.41;100.00
40908;BME280;51055;59.436;24.778;2022-10-23T02:56:25;100716.41;;;5.42;100.00
40908;BME280;51055;59.436;24.778;2022-10-23T02:59:16;100714.81;;;5.40;100.00
40908;BME280;51055;59.436;24.778;2022-10-23T03:01:50;100713.78;;;5.42;100.00
40908;BME280;51055;59.436;24.778;2022-10-23T03:04:22;100710.97;;;5.45;100.00
40908;BME280;51055;59.436;24.778;2022-10-23T03:06:51;100714.34;;;5.47;100.00
40908;BME280;51055;59.436;24.778;2022-10-23T03:09:19;100711.72;;;5.47;100.00
40908;BME280;51055;59.436;24.778;2022-10-23T03:11:46;100715.22;;;5.48;100.00
40908;BME280;51055;59.436;24.778;2022-10-23T03:14:14;100712.56;;;5.48;100.00
40908;BME280;51055;59.436;24.778;2022-10-23T03:16:42;100709.94;;;5.48;100.00
40908;BME280;51055;59.436;24.778;2022-10-23T03:19:13;100714.94;;;5.52;100.00
40908;BME280;51055;59.436;24.778;2022-10-23T03:21:40;100707.25;;;5.49;100.00
40908;BME280;51055;59.436;24.778;2022-10-23T03:24:08;100714.28;;;5.49;100.00
40908;BME280;51055;59.436;24.778;2022-10-23T03:26:35;100713.31;;;5.50;100.00
40908;BME280;51055;59.436;24.778;2022-10-23T03:29:03;100710.69;;;5.50;100.00
40908;BME280;51055;59.436;24.778;2022-10-23T03:31:31;100708.84;;;5.52;100.00
40908;BME280;51055;59.436;24.778;2022-10-23T03:33:58;100712.22;;;5.54;100.00
40908;BME280;51055;59.436;24.778;2022-10-23T03:36:26;100714.00;;;5.53;100.00
40908;BME280;51055;59.436;24.778;2022-10-23T03:38:55;100708.84;;;5.52;100.00
40908;BME280;51055;59.436;24.778;2022-10-23T03:41:23;100710.53;;;5.53;100.00
40908;BME280;51055;59.436;24.778;2022-10-23T03:43:50;100712.22;;;5.54;100.00
40908;BME280;51055;59.436;24.778;2022-10-23T03:46:18;100718.16;;;5.57;100.00
40908;BME280;51055;59.436;24.778;2022-10-23T03:48:46;100718.31;;;5.54;100.00
40908;BME280;51055;59.436;24.778;2022-10-23T03:51:13;100715.63;;;5.56;100.00
40908;BME280;51055;59.436;24.778;2022-10-23T03:53:41;100717.47;;;5.54;100.00
40908;BME280;51055;59.436;24.778;2022-10-23T03:56:08;100721.81;;;5.55;100.00
40908;BME280;51055;59.436;24.778;2022-10-23T03:58:36;100712.88;;;5.57;100.00
40908;BME280;51055;59.436;24.778;2022-10-23T04:01:03;100715.31;;;5.60;100.00
40908;BME280;51055;59.436;24.778;2022-10-23T04:03:31;100716.38;;;5.58;100.00
40908;BME280;51055;59.436;24.778;2022-10-23T04:05:58;100712.63;;;5.62;100.00
40908;BME280;51055;59.436;24.778;2022-10-23T04:08:26;100714.22;;;5.64;100.00
40908;BME280;51055;59.436;24.778;2022-10-23T04:10:54;100712.16;;;5.69;100.00
40908;BME280;51055;59.436;24.778;2022-10-23T04:13:22;100710.47;;;5.68;100.00
40908;BME280;51055;59.436;24.778;2022-10-23T04:15:50;100709.50;;;5.69;100.00
40908;BME280;51055;59.436;24.778;2022-10-23T04:18:19;100716.47;;;5.70;100.00
40908;BME280;51055;59.436;24.778;2022-10-23T04:20:47;100711.03;;;5.73;100.00
40908;BME280;51055;59.436;24.778;2022-10-23T04:23:16;100725.03;;;5.74;100.00
40908;BME280;51055;59.436;24.778;2022-10-23T04:25:44;100712.75;;;5.74;100.00
40908;BME280;51055;59.436;24.778;2022-10-23T04:28:17;100719.53;;;5.78;100.00
40908;BME280;51055;59.436;24.778;2022-10-23T04:30:45;100717.81;;;5.77;100.00
40908;BME280;51055;59.436;24.778;2022-10-23T04:33:13;100712.28;;;5.82;100.00
40908;BME280;51055;59.436;24.778;2022-10-23T04:35:40;100709.66;;;5.82;100.00
40908;BME280;51055;59.436;24.778;2022-10-23T04:38:08;100706.06;;;5.83;100.00
40908;BME280;51055;59.436;24.778;2022-10-23T04:40:35;100707.72;;;5.86;100.00
40908;BME280;51055;59.436;24.778;2022-10-23T04:43:03;100710.06;;;5.90;100.00
40908;BME280;51055;59.436;24.778;2022-10-23T04:45:31;100704.72;;;5.92;100.00
40908;BME280;51055;59.436;24.778;2022-10-23T04:47:58;100704.72;;;5.92;100.00
40908;BME280;51055;59.436;24.778;2022-10-23T04:50:26;100701.22;;;5.91;100.00
40908;BME280;51055;59.436;24.778;2022-10-23T04:52:54;100707.25;;;5.93;100.00
40908;BME280;51055;59.436;24.778;2022-10-23T04:55:23;100708.09;;;5.94;100.00
40908;BME280;51055;59.436;24.778;2022-10-23T04:57:51;100707.16;;;5.95;100.00
40908;BME280;51055;59.436;24.778;2022-10-23T05:00:19;100708.75;;;5.97;100.00
40908;BME280;51055;59.436;24.778;2022-10-23T05:02:47;100706.97;;;5.98;100.00
40908;BME280;51055;59.436;24.778;2022-10-23T05:05:16;100711.31;;;5.99;100.00
40908;BME280;51055;59.436;24.778;2022-10-23T05:07:44;100708.56;;;6.00;100.00
40908;BME280;51055;59.436;24.778;2022-10-23T05:10:12;100710.34;;;6.00;100.00
40908;BME280;51055;59.436;24.778;2022-10-23T05:12:40;100714.69;;;6.01;100.00
40908;BME280;51055;59.436;24.778;2022-10-23T05:15:07;100704.16;;;6.01;100.00
40908;BME280;51055;59.436;24.778;2022-10-23T05:17:36;100711.13;;;6.02;100.00
40908;BME280;51055;59.436;24.778;2022-10-23T05:20:10;100712.06;;;6.01;100.00
40908;BME280;51055;59.436;24.778;2022-10-23T05:22:41;100718.06;;;6.03;100.00
40908;BME280;51055;59.436;24.778;2022-10-23T05:25:11;100710.09;;;6.04;100.00
40908;BME280;51055;59.436;24.778;2022-10-23T05:27:39;100714.50;;;6.04;100.00
40908;BME280;51055;59.436;24.778;2022-10-23T05:30:08;100708.50;;;6.02;100.00
40908;BME280;51055;59.436;24.778;2022-10-23T05:32:36;100708.38;;;6.03;100.00
40908;BME280;51055;59.436;24.778;2022-10-23T05:35:07;100717.13;;;6.04;100.00
40908;BME280;51055;59.436;24.778;2022-10-23T05:37:40;100713.56;;;6.05;100.00
40908;BME280;51055;59.436;24.778;2022-10-23T05:40:09;100711.75;;;6.05;100.00
40908;BME280;51055;59.436;24.778;2022-10-23T05:42:37;100709.91;;;6.07;100.00
40908;BME280;51055;59.436;24.778;2022-10-23T05:45:08;100715.81;;;6.11;100.00
40908;BME280;51055;59.436;24.778;2022-10-23T05:47:36;100713.94;;;6.13;100.00
40908;BME280;51055;59.436;24.778;2022-10-23T05:50:03;100717.50;;;6.12;100.00
40908;BME280;51055;59.436;24.778;2022-10-23T05:52:32;100715.72;;;6.12;100.00
40908;BME280;51055;59.436;24.778;2022-10-23T05:54:59;100720.78;;;6.15;100.00
40908;BME280;51055;59.436;24.778;2022-10-23T05:57:27;100719.78;;;6.18;100.00
40908;BME280;51055;59.436;24.778;2022-10-23T05:59:55;100719.78;;;6.18;100.00
40908;BME280;51055;59.436;24.778;2022-10-23T06:02:22;100722.22;;;6.21;100.00
40908;BME280;51055;59.436;24.778;2022-10-23T06:04:50;100719.66;;;6.19;100.00
40908;BME280;51055;59.436;24.778;2022-10-23T06:07:25;100716.00;;;6.22;100.00
40908;BME280;51055;59.436;24.778;2022-10-23T06:09:57;100723.06;;;6.21;100.00
40908;BME280;51055;59.436;24.778;2022-10-23T06:12:25;100716.94;;;6.21;100.00
40908;BME280;51055;59.436;24.778;2022-10-23T06:14:53;100723.06;;;6.21;100.00
40908;BME280;51055;59.436;24.778;2022-10-23T06:17:20;100714.97;;;6.24;100.00
40908;BME280;51055;59.436;24.778;2022-10-23T06:19:48;100722.69;;;6.27;100.00
40908;BME280;51055;59.436;24.778;2022-10-23T06:22:16;100720.72;;;6.31;100.00
40908;BME280;51055;59.436;24.778;2022-10-23T06:24:44;100719.00;;;6.30;100.00
40908;BME280;51055;59.436;24.778;2022-10-23T06:27:11;100725.88;;;6.33;100.00
40908;BME280;51055;59.436;24.778;2022-10-23T06:29:39;100728.31;;;6.36;100.00
40908;BME280;51055;59.436;24.778;2022-10-23T06:32:08;100722.84;;;6.39;100.00
40908;BME280;51055;59.436;24.778;2022-10-23T06:34:35;100726.16;;;6.42;100.00
40908;BME280;51055;59.436;24.778;2022-10-23T06:37:03;100729.44;;;6.46;100.00
40908;BME280;51055;59.436;24.778;2022-10-23T06:39:31;100734.91;;;6.43;100.00
40908;BME280;51055;59.436;24.778;2022-10-23T06:41:59;100733.97;;;6.44;100.00
40908;BME280;51055;59.436;24.778;2022-10-23T06:44:26;100731.88;;;6.49;100.00
40908;BME280;51055;59.436;24.778;2022-10-23T06:46:54;100736.22;;;6.50;100.00
40908;BME280;51055;59.436;24.778;2022-10-23T06:49:22;100736.97;;;6.52;100.00
40908;BME280;51055;59.436;24.778;2022-10-23T06:51:49;100734.13;;;6.55;100.00
40908;BME280;51055;59.436;24.778;2022-10-23T06:54:17;100738.00;;;6.63;100.00
40908;BME280;51055;59.436;24.778;2022-10-23T06:56:45;100744.00;;;6.65;100.00
40908;BME280;51055;59.436;24.778;2022-10-23T06:59:12;100734.78;;;6.72;100.00
40908;BME280;51055;59.436;24.778;2022-10-23T07:01:40;100738.06;;;6.76;100.00
40908;BME280;51055;59.436;24.778;2022-10-23T07:04:08;100733.97;;;6.85;100.00
40908;BME280;51055;59.436;24.778;2022-10-23T07:06:36;100745.19;;;6.88;100.00
40908;BME280;51055;59.436;24.778;2022-10-23T07:09:03;100746.56;;;6.94;100.00
40908;BME280;51055;59.436;24.778;2022-10-23T07:11:31;100738.50;;;6.97;100.00
40908;BME280;51055;59.436;24.778;2022-10-23T07:13:58;100749.59;;;7.02;100.00
40908;BME280;51055;59.436;24.778;2022-10-23T07:16:26;100746.75;;;7.05;100.00
40908;BME280;51055;59.436;24.778;2022-10-23T07:18:56;100750.03;;;7.08;100.00
40908;BME280;51055;59.436;24.778;2022-10-23T07:21:30;100734.66;;;7.15;100.00
40908;BME280;51055;59.436;24.778;2022-10-23T07:23:58;100741.31;;;7.20;100.00
40908;BME280;51055;59.436;24.778;2022-10-23T07:26:26;100748.81;;;7.26;100.00
40908;BME280;51055;59.436;24.778;2022-10-23T07:28:54;100747.94;;;7.40;100.00
40908;BME280;51055;59.436;24.778;2022-10-23T07:31:23;100749.09;;;7.36;100.00
40908;BME280;51055;59.436;24.778;2022-10-23T07:33:54;100753.09;;;7.29;100.00
40908;BME280;51055;59.436;24.778;2022-10-23T07:36:22;100750.00;;;7.22;100.00
40908;BME280;51055;59.436;24.778;2022-10-23T07:38:50;100747.44;;;7.21;100.00
40908;BME280;51055;59.436;24.778;2022-10-23T07:41:18;100763.38;;;7.19;100.00
40908;BME280;51055;59.436;24.778;2022-10-23T07:43:45;100758.66;;;7.24;100.00
40908;BME280;51055;59.436;24.778;2022-10-23T07:46:13;100770.25;;;7.22;100.00
40908;BME280;51055;59.436;24.778;2022-10-23T07:48:41;100761.56;;;7.20;100.00
40908;BME280;51055;59.436;24.778;2022-10-23T07:51:14;100770.44;;;7.19;100.00
40908;BME280;51055;59.436;24.778;2022-10-23T07:53:42;100774.75;;;7.20;100.00
40908;BME280;51055;59.436;24.778;2022-10-23T07:56:21;100771.31;;;7.19;100.00
40908;BME280;51055;59.436;24.778;2022-10-23T07:58:49;100772.25;;;7.18;100.00
40908;BME280;51055;59.436;24.778;2022-10-23T08:03:52;100777.13;;;7.24;100.00
40908;BME280;51055;59.436;24.778;2022-10-23T08:06:19;100777.84;;;7.26;100.00
40908;BME280;51055;59.436;24.778;2022-10-23T08:08:47;100784.81;;;7.27;100.00
40908;BME280;51055;59.436;24.778;2022-10-23T08:11:17;100782.31;;;7.26;100.00
40908;BME280;51055;59.436;24.778;2022-10-23T08:13:52;100786.09;;;7.22;100.00
40908;BME280;51055;59.436;24.778;2022-10-23T08:16:20;100792.28;;;7.21;100.00
40908;BME280;51055;59.436;24.778;2022-10-23T08:18:48;100793.22;;;7.20;100.00
40908;BME280;51055;59.436;24.778;2022-10-23T08:21:16;100787.88;;;7.21;100.00
40908;BME280;51055;59.436;24.778;2022-10-23T08:23:44;100799.06;;;7.25;100.00
40908;BME280;51055;59.436;24.778;2022-10-23T08:26:12;100798.94;;;7.26;100.00
40908;BME280;51055;59.436;24.778;2022-10-23T08:28:39;100796.22;;;7.28;100.00
40908;BME280;51055;59.436;24.778;2022-10-23T08:31:12;100796.03;;;7.31;100.00
40908;BME280;51055;59.436;24.778;2022-10-23T08:33:41;100796.69;;;7.34;100.00
40908;BME280;51055;59.436;24.778;2022-10-23T08:36:17;100796.41;;;7.39;100.00
40908;BME280;51055;59.436;24.778;2022-10-23T08:38:46;100796.28;;;7.41;100.00
40908;BME280;51055;59.436;24.778;2022-10-23T08:44:22;100792.38;;;7.46;100.00
40908;BME280;51055;59.436;24.778;2022-10-23T08:47:10;100807.19;;;7.49;100.00
40908;BME280;51055;59.436;24.778;2022-10-23T08:52:47;100812.47;;;7.49;100.00
40908;BME280;51055;59.436;24.778;2022-10-23T08:55:29;100815.19;;;7.47;100.00
40908;BME280;51055;59.436;24.778;2022-10-23T08:58:21;100815.41;;;7.44;100.00
40908;BME280;51055;59.436;24.778;2022-10-23T09:00:50;100818.97;;;7.43;100.00
40908;BME280;51055;59.436;24.778;2022-10-23T09:03:18;100822.47;;;7.44;100.00
40908;BME280;51055;59.436;24.778;2022-10-23T09:06:16;100820.59;;;7.46;100.00
40908;BME280;51055;59.436;24.778;2022-10-23T09:08:58;100820.59;;;7.46;100.00
40908;BME280;51055;59.436;24.778;2022-10-23T09:11:55;100818.88;;;7.45;100.00
40908;BME280;51055;59.436;24.778;2022-10-23T09:17:36;100827.94;;;7.41;100.00
40908;BME280;51055;59.436;24.778;2022-10-23T09:20:20;100828.50;;;7.46;100.00
40908;BME280;51055;59.436;24.778;2022-10-23T09:23:35;100834.53;;;7.48;100.00
40908;BME280;51055;59.436;24.778;2022-10-23T09:25:38;100833.59;;;7.49;100.00
40908;BME280;51055;59.436;24.778;2022-10-23T09:28:10;100830.84;;;7.50;100.00
40908;BME280;51055;59.436;24.778;2022-10-23T09:30:42;100838.75;;;7.50;100.00
40908;BME280;51055;59.436;24.778;2022-10-23T09:33:22;100846.59;;;7.52;100.00
40908;BME280;51055;59.436;24.778;2022-10-23T09:38:48;100841.09;;;7.55;100.00
40908;BME280;51055;59.436;24.778;2022-10-23T09:41:23;100844.59;;;7.55;100.00
40908;BME280;51055;59.436;24.778;2022-10-23T09:46:44;100838.66;;;7.52;100.00
40908;BME280;51055;59.436;24.778;2022-10-23T09:49:26;100842.59;;;7.59;100.00
40908;BME280;51055;59.436;24.778;2022-10-23T09:54:47;100845.53;;;7.54;100.00
40908;BME280;51055;59.436;24.778;2022-10-23T09:59:56;100846.19;;;7.58;100.00
40908;BME280;51055;59.436;24.778;2022-10-23T10:02:31;100857.59;;;7.58;100.00
40908;BME280;51055;59.436;24.778;2022-10-23T10:05:20;100855.47;;;7.63;100.00
40908;BME280;51055;59.436;24.778;2022-10-23T10:07:59;100857.63;;;7.71;100.00
40908;BME280;51055;59.436;24.778;2022-10-23T10:10:36;100853.84;;;7.75;100.00
40908;BME280;51055;59.436;24.778;2022-10-23T10:16:07;100855.97;;;7.82;100.00
40908;BME280;51055;59.436;24.778;2022-10-23T10:18:51;100855.75;;;7.85;100.00
40908;BME280;51055;59.436;24.778;2022-10-23T10:24:10;100851.97;;;7.90;100.00
40908;BME280;51055;59.436;24.778;2022-10-23T10:27:02;100860.66;;;7.92;100.00
40908;BME280;51055;59.436;24.778;2022-10-23T10:29:46;100864.56;;;7.99;100.00
40908;BME280;51055;59.436;24.778;2022-10-23T10:32:25;100868.50;;;8.06;100.00
40908;BME280;51055;59.436;24.778;2022-10-23T10:40:30;100877.19;;;8.08;100.00
40908;BME280;51055;59.436;24.778;2022-10-23T10:45:51;100880.78;;;8.07;100.00
40908;BME280;51055;59.436;24.778;2022-10-23T10:51:20;100890.69;;;8.30;100.00
40908;BME280;51055;59.436;24.778;2022-10-23T10:56:16;100891.34;;;8.33;98.58
40908;BME280;51055;59.436;24.778;2022-10-23T10:58:54;100892.41;;;8.31;96.75
40908;BME280;51055;59.436;24.778;2022-10-23T11:01:55;100893.13;;;8.33;95.99
40908;BME280;51055;59.436;24.778;2022-10-23T11:07:14;100896.06;;;8.28;95.29
40908;BME280;51055;59.436;24.778;2022-10-23T11:09:44;100897.09;;;8.26;94.57
40908;BME280;51055;59.436;24.778;2022-10-23T11:12:18;100903.78;;;8.31;94.56
40908;BME280;51055;59.436;24.778;2022-10-23T11:14:47;100895.47;;;8.38;93.90
40908;BME280;51055;59.436;24.778;2022-10-23T11:17:58;100904.78;;;8.43;92.94
40908;BME280;51055;59.436;24.778;2022-10-23T11:25:45;100896.50;;;8.48;91.95
40908;BME280;51055;59.436;24.778;2022-10-23T11:31:06;100902.78;;;8.47;91.41
40908;BME280;51055;59.436;24.778;2022-10-23T11:36:19;100908.16;;;8.58;90.26
40908;BME280;51055;59.436;24.778;2022-10-23T11:39:13;100906.91;;;8.51;89.04
40908;BME280;51055;59.436;24.778;2022-10-23T11:41:54;100912.91;;;8.40;89.38
40908;BME280;51055;59.436;24.778;2022-10-23T11:44:47;100904.84;;;8.42;89.54
40908;BME280;51055;59.436;24.778;2022-10-23T11:47:36;100902.34;;;8.40;88.82
40908;BME280;51055;59.436;24.778;2022-10-23T11:52:58;100914.56;;;8.28;89.03
40908;BME280;51055;59.436;24.778;2022-10-23T11:55:55;100914.66;;;8.27;88.96
40908;BME280;51055;59.436;24.778;2022-10-23T11:58:39;100911.91;;;8.28;88.83
40908;BME280;51055;59.436;24.778;2022-10-23T12:04:17;100914.84;;;8.24;88.61
40908;BME280;51055;59.436;24.778;2022-10-23T12:06:52;100915.25;;;8.18;88.78
40908;BME280;51055;59.436;24.778;2022-10-23T12:12:13;100917.56;;;8.10;89.20
40908;BME280;51055;59.436;24.778;2022-10-23T12:14:49;100928.19;;;8.08;88.87
40908;BME280;51055;59.436;24.778;2022-10-23T12:19:53;100923.06;;;8.19;88.82
40908;BME280;51055;59.436;24.778;2022-10-23T12:22:25;100926.91;;;8.28;87.98
40908;BME280;51055;59.436;24.778;2022-10-23T12:25:00;100924.63;;;8.36;87.34
40908;BME280;51055;59.436;24.778;2022-10-23T12:27:33;100928.22;;;8.35;86.47
40908;BME280;51055;59.436;24.778;2022-10-23T12:30:24;100925.69;;;8.33;86.78
40908;BME280;51055;59.436;24.778;2022-10-23T12:33:19;100923.03;;;8.33;86.46
40908;BME280;51055;59.436;24.778;2022-10-23T12:38:49;100932.78;;;8.46;85.69
40908;BME280;51055;59.436;24.778;2022-10-23T12:41:27;100928.13;;;8.49;85.80
40908;BME280;51055;59.436;24.778;2022-10-23T12:43:57;100933.13;;;8.54;84.49
40908;BME280;51055;59.436;24.778;2022-10-23T12:49:00;100933.63;;;8.46;84.22
40908;BME280;51055;59.436;24.778;2022-10-23T12:51:31;100928.22;;;8.48;84.50
40908;BME280;51055;59.436;24.778;2022-10-23T12:54:01;100937.22;;;8.45;84.50
40908;BME280;51055;59.436;24.778;2022-10-23T12:56:35;100940.56;;;8.34;84.16
40908;BME280;51055;59.436;24.778;2022-10-23T12:59:09;100934.75;;;8.29;84.54
40908;BME280;51055;59.436;24.778;2022-10-23T13:01:40;100939.66;;;8.21;84.88
40908;BME280;51055;59.436;24.778;2022-10-23T13:04:12;100940.06;;;8.15;84.74
40908;BME280;51055;59.436;24.778;2022-10-23T13:06:40;100942.25;;;8.09;85.06
40908;BME280;51055;59.436;24.778;2022-10-23T13:09:40;100941.53;;;8.07;85.38
40908;BME280;51055;59.436;24.778;2022-10-23T13:12:07;100938.25;;;8.03;85.64
40908;BME280;51055;59.436;24.778;2022-10-23T13:14:37;100952.72;;;7.98;84.81
40908;BME280;51055;59.436;24.778;2022-10-23T13:17:11;100949.94;;;7.99;85.05
40908;BME280;51055;59.436;24.778;2022-10-23T13:19:39;100952.78;;;7.96;84.83
40908;BME280;51055;59.436;24.778;2022-10-23T13:22:19;100961.75;;;7.94;84.75
40908;BME280;51055;59.436;24.778;2022-10-23T13:24:47;100960.91;;;7.93;84.68
40908;BME280;51055;59.436;24.778;2022-10-23T13:27:33;100957.53;;;7.91;84.74
40908;BME280;51055;59.436;24.778;2022-10-23T13:30:00;100961.03;;;7.92;84.36
40908;BME280;51055;59.436;24.778;2022-10-23T13:32:31;100961.13;;;7.90;84.42
40908;BME280;51055;59.436;24.778;2022-10-23T13:34:58;100959.41;;;7.89;84.62
40908;BME280;51055;59.436;24.778;2022-10-23T13:37:47;100954.13;;;7.89;84.59
40908;BME280;51055;59.436;24.778;2022-10-23T13:40:21;100963.03;;;7.88;84.70
40908;BME280;51055;59.436;24.778;2022-10-23T13:42:53;100957.75;;;7.88;85.00
40908;BME280;51055;59.436;24.778;2022-10-23T13:45:24;100952.53;;;7.86;84.86
40908;BME280;51055;59.436;24.778;2022-10-23T13:47:52;100954.31;;;7.86;85.21
40908;BME280;51055;59.436;24.778;2022-10-23T13:50:20;100961.41;;;7.85;85.09
40908;BME280;51055;59.436;24.778;2022-10-23T13:52:47;100955.38;;;7.83;85.05
40908;BME280;51055;59.436;24.778;2022-10-23T13:55:23;100956.22;;;7.84;85.00
40908;BME280;51055;59.436;24.778;2022-10-23T13:57:51;100961.41;;;7.85;85.17
40908;BME280;51055;59.436;24.778;2022-10-23T14:00:19;100961.31;;;7.87;85.10
40908;BME280;51055;59.436;24.778;2022-10-23T14:02:46;100951.59;;;7.88;85.09
40908;BME280;51055;59.436;24.778;2022-10-23T14:05:14;100960.25;;;7.90;84.62
40908;BME280;51055;59.436;24.778;2022-10-23T14:07:42;100961.19;;;7.88;84.31
40908;BME280;51055;59.436;24.778;2022-10-23T14:10:10;100961.31;;;7.87;84.21
40908;BME280;51055;59.436;24.778;2022-10-23T14:12:42;100964.03;;;7.85;84.10
40908;BME280;51055;59.436;24.778;2022-10-23T14:15:10;100973.66;;;7.86;84.18
40908;BME280;51055;59.436;24.778;2022-10-23T14:17:38;100962.25;;;7.86;84.02
40908;BME280;51055;59.436;24.778;2022-10-23T14:20:06;100962.25;;;7.86;84.10
40908;BME280;51055;59.436;24.778;2022-10-23T14:22:34;100965.09;;;7.83;84.20
40908;BME280;51055;59.436;24.778;2022-10-23T14:25:02;100966.88;;;7.82;84.30
40908;BME280;51055;59.436;24.778;2022-10-23T14:27:30;100966.88;;;7.82;84.68
40908;BME280;51055;59.436;24.778;2022-10-23T14:29:58;100966.03;;;7.82;85.12
40908;BME280;51055;59.436;24.778;2022-10-23T14:32:25;100966.88;;;7.82;85.18
40908;BME280;51055;59.436;24.778;2022-10-23T14:34:53;100976.78;;;7.79;85.12
40908;BME280;51055;59.436;24.778;2022-10-23T14:37:21;100971.69;;;7.76;85.55